Time,TemperatureF,DewpointF,PressureIn,WindDirection,WindDirectionDegrees,WindSpeedMPH,WindSpeedGustMPH,Humidity,HourlyPrecipIn,Conditions,Clouds,dailyrainin,SoftwareType,DateUTC
2013-04-11 00:07:00,51.4,17.6,30.12,WSW,250,0.0,0.0,26,0.00,,,0.00,meteohub,2013-04-11 07:07:00,
2013-04-11 00:17:00,51.3,17.6,30.11,WSW,243,0.0,0.0,26,0.00,,,0.00,meteohub,2013-04-11 07:17:00,
2013-04-11 00:22:00,51.3,17.6,30.11,WSW,248,0.0,0.0,26,0.00,,,0.00,meteohub,2013-04-11 07:22:00,
2013-04-11 00:27:00,51.3,17.6,30.11,WSW,248,0.0,0.0,26,0.00,,,0.00,meteohub,2013-04-11 07:27:00,
2013-04-11 00:32:00,52.0,17.2,30.11,WSW,240,0.0,0.0,25,0.00,,,0.00,meteohub,2013-04-11 07:32:00,
2013-04-11 00:37:00,52.2,16.5,30.11,SW,221,0.0,0.0,24,0.00,,,0.00,meteohub,2013-04-11 07:37:00,
2013-04-11 00:42:00,52.3,16.5,30.11,WSW,240,0.0,0.0,24,0.00,,,0.00,meteohub,2013-04-11 07:42:00,
2013-04-11 00:52:00,52.2,16.5,30.10,SW,217,1.0,0.0,24,0.00,,,0.00,meteohub,2013-04-11 07:52:00,
2013-04-11 00:57:00,52.0,17.2,30.11,SSW,207,1.0,2.0,25,0.00,,,0.00,meteohub,2013-04-11 07:57:00,
2013-04-11 01:02:00,51.8,17.1,30.10,SSE,148,1.0,2.0,25,0.00,,,0.00,meteohub,2013-04-11 08:02:00,
2013-04-11 01:12:00,51.1,18.3,30.09,WSW,238,0.0,1.0,27,0.00,,,0.00,meteohub,2013-04-11 08:12:00,
2013-04-11 01:17:00,51.1,16.5,30.09,South,173,0.0,1.0,25,0.00,,,0.00,meteohub,2013-04-11 08:17:00,
2013-04-11 01:22:00,51.6,16.0,30.09,South,173,0.0,0.0,24,0.00,,,0.00,meteohub,2013-04-11 08:22:00,
2013-04-11 01:27:00,52.0,18.1,30.08,South,174,0.0,0.0,26,0.00,,,0.00,meteohub,2013-04-11 08:27:00,
2013-04-11 01:37:00,51.8,17.1,30.08,SW,224,3.0,0.0,25,0.00,,,0.00,meteohub,2013-04-11 08:37:00,
2013-04-11 01:42:00,52.2,17.4,30.08,SSW,193,1.0,3.0,25,0.00,,,0.00,meteohub,2013-04-11 08:42:00,
2013-04-11 01:52:00,52.9,16.2,30.07,WSW,245,1.0,5.0,23,0.00,,,0.00,meteohub,2013-04-11 08:52:00,
2013-04-11 01:57:00,52.9,17.1,30.07,WSW,240,1.0,5.0,24,0.00,,,0.00,meteohub,2013-04-11 08:57:00,
2013-04-11 02:07:00,52.5,15.8,30.06,SW,222,0.0,4.0,23,0.00,,,0.00,meteohub,2013-04-11 09:07:00,
2013-04-11 02:12:00,52.9,17.1,30.06,South,181,2.0,4.0,24,0.00,,,0.00,meteohub,2013-04-11 09:12:00,
2013-04-11 02:17:00,52.9,16.2,30.06,WSW,238,2.0,4.0,23,0.00,,,0.00,meteohub,2013-04-11 09:17:00,
2013-04-11 02:22:00,53.2,16.3,30.06,SSW,195,1.0,6.0,23,0.00,,,0.00,meteohub,2013-04-11 09:22:00,
2013-04-11 02:27:00,53.2,16.3,30.05,SSW,210,1.0,6.0,23,0.00,,,0.00,meteohub,2013-04-11 09:27:00,
2013-04-11 02:32:00,53.2,17.4,30.05,ESE,110,0.0,6.0,24,0.00,,,0.00,meteohub,2013-04-11 09:32:00,
2013-04-11 02:37:00,52.9,17.1,30.05,WSW,249,1.0,6.0,24,0.00,,,0.00,meteohub,2013-04-11 09:37:00,
2013-04-11 02:42:00,52.7,16.9,30.05,SE,124,3.0,6.0,24,0.00,,,0.00,meteohub,2013-04-11 09:42:00,
2013-04-11 02:47:00,52.7,16.9,30.04,ESE,108,3.0,5.0,24,0.00,,,0.00,meteohub,2013-04-11 09:47:00,
2013-04-11 02:52:00,52.9,17.1,30.04,SW,225,2.0,8.0,24,0.00,,,0.00,meteohub,2013-04-11 09:52:00,
2013-04-11 03:02:00,52.3,17.6,30.04,West,277,1.0,8.0,25,0.00,,,0.00,meteohub,2013-04-11 10:02:00,
2013-04-11 03:07:00,52.3,16.5,30.04,WSW,243,2.0,6.0,24,0.00,,,0.00,meteohub,2013-04-11 10:07:00,
2013-04-11 03:12:00,52.3,18.5,30.04,South,181,5.0,8.0,26,0.00,,,0.00,meteohub,2013-04-11 10:12:00,
2013-04-11 03:17:00,52.0,18.1,30.04,NW,312,4.0,10.0,26,0.00,,,0.00,meteohub,2013-04-11 10:17:00,
2013-04-11 03:22:00,51.4,18.5,30.03,WSW,242,1.0,10.0,27,0.00,,,0.00,meteohub,2013-04-11 10:22:00,
2013-04-11 03:32:00,51.1,19.0,30.03,SW,236,1.0,7.0,28,0.00,,,0.00,meteohub,2013-04-11 10:32:00,
2013-04-11 03:37:00,50.9,19.8,30.03,WSW,248,1.0,7.0,29,0.00,,,0.00,meteohub,2013-04-11 10:37:00,
2013-04-11 03:42:00,50.5,19.4,30.03,WSW,240,2.0,8.0,29,0.00,,,0.00,meteohub,2013-04-11 10:42:00,
2013-04-11 03:47:00,51.3,18.3,30.02,SSW,205,3.0,8.0,27,0.00,,,0.00,meteohub,2013-04-11 10:47:00,
2013-04-11 03:57:00,51.8,17.1,30.02,South,174,2.0,7.0,25,0.00,,,0.00,meteohub,2013-04-11 10:57:00,
2013-04-11 04:02:00,52.3,18.5,30.02,SE,138,2.0,9.0,26,0.00,,,0.00,meteohub,2013-04-11 11:02:00,
2013-04-11 04:07:00,51.8,19.8,30.01,SW,219,4.0,9.0,28,0.00,,,0.00,meteohub,2013-04-11 11:07:00,
2013-04-11 04:12:00,51.6,16.9,30.01,ESE,121,2.0,9.0,25,0.00,,,0.00,meteohub,2013-04-11 11:12:00,
2013-04-11 04:17:00,52.0,17.2,30.01,ENE,73,2.0,7.0,25,0.00,,,0.00,meteohub,2013-04-11 11:17:00,
2013-04-11 04:22:00,52.0,17.2,30.01,WSW,250,4.0,7.0,25,0.00,,,0.00,meteohub,2013-04-11 11:22:00,
2013-04-11 04:32:00,51.8,19.8,30.01,SW,233,3.0,6.0,28,0.00,,,0.00,meteohub,2013-04-11 11:32:00,
2013-04-11 04:37:00,51.8,18.9,30.01,SSW,197,1.0,6.0,27,0.00,,,0.00,meteohub,2013-04-11 11:37:00,
2013-04-11 04:42:00,51.8,20.5,30.01,SW,228,1.0,6.0,29,0.00,,,0.00,meteohub,2013-04-11 11:42:00,
2013-04-11 04:47:00,52.0,21.6,30.01,SE,127,2.0,5.0,30,0.00,,,0.00,meteohub,2013-04-11 11:47:00,
2013-04-11 04:57:00,51.6,21.9,30.00,SSW,194,1.0,4.0,31,0.00,,,0.00,meteohub,2013-04-11 11:57:00,
2013-04-11 05:07:00,50.7,21.9,30.00,SSW,207,1.0,2.0,32,0.00,,,0.00,meteohub,2013-04-11 12:07:00,
2013-04-11 05:12:00,50.5,21.0,30.00,South,186,1.0,2.0,31,0.00,,,0.00,meteohub,2013-04-11 12:12:00,
2013-04-11 05:17:00,50.5,22.5,30.00,SE,132,1.0,2.0,33,0.00,,,0.00,meteohub,2013-04-11 12:17:00,
2013-04-11 05:22:00,50.5,21.0,30.00,SSW,195,0.0,2.0,31,0.00,,,0.00,meteohub,2013-04-11 12:22:00,
2013-04-11 05:32:00,50.5,21.0,29.99,SSE,156,0.0,2.0,31,0.00,,,0.00,meteohub,2013-04-11 12:32:00,
2013-04-11 05:37:00,50.4,21.6,29.99,SSW,197,0.0,1.0,32,0.00,,,0.00,meteohub,2013-04-11 12:37:00,
2013-04-11 05:47:00,49.6,23.2,29.99,WSW,252,0.0,0.0,35,0.00,,,0.00,meteohub,2013-04-11 12:47:00,
2013-04-11 05:52:00,49.6,22.5,29.99,SSW,205,0.0,0.0,34,0.00,,,0.00,meteohub,2013-04-11 12:52:00,
2013-04-11 05:57:00,49.6,22.5,29.99,SW,228,0.0,0.0,34,0.00,,,0.00,meteohub,2013-04-11 12:57:00,
2013-04-11 06:02:00,49.8,21.9,29.99,WSW,253,0.0,0.0,33,0.00,,,0.00,meteohub,2013-04-11 13:02:00,
2013-04-11 06:07:00,49.8,21.2,29.99,SSE,162,0.0,0.0,32,0.00,,,0.00,meteohub,2013-04-11 13:07:00,
2013-04-11 06:12:00,50.0,22.1,29.99,SW,233,0.0,0.0,33,0.00,,,0.00,meteohub,2013-04-11 13:12:00,
2013-04-11 06:17:00,50.2,21.4,29.99,WSW,241,0.0,0.0,32,0.00,,,0.00,meteohub,2013-04-11 13:17:00,
2013-04-11 06:22:00,49.8,21.2,29.98,SW,219,0.0,0.0,32,0.00,,,0.00,meteohub,2013-04-11 13:22:00,
2013-04-11 06:27:00,50.0,22.1,29.99,SW,219,0.0,0.0,33,0.00,,,0.00,meteohub,2013-04-11 13:27:00,
2013-04-11 06:37:00,49.8,21.9,29.99,WSW,250,0.0,0.0,33,0.00,,,0.00,meteohub,2013-04-11 13:37:00,
2013-04-11 06:42:00,49.8,21.9,29.99,WSW,252,0.0,0.0,33,0.00,,,0.00,meteohub,2013-04-11 13:42:00,
2013-04-11 06:52:00,50.2,21.4,29.99,SSW,205,0.0,0.0,32,0.00,,,0.00,meteohub,2013-04-11 13:52:00,
2013-04-11 06:57:00,50.4,20.8,29.99,SSW,193,0.0,0.0,31,0.00,,,0.00,meteohub,2013-04-11 13:57:00,
2013-04-11 07:07:00,51.1,20.7,29.99,SSW,200,0.0,0.0,30,0.00,,,0.00,meteohub,2013-04-11 14:07:00,
2013-04-11 07:12:00,51.3,22.5,29.98,SE,138,0.0,0.0,32,0.00,,,0.00,meteohub,2013-04-11 14:12:00,
2013-04-11 07:17:00,51.4,23.4,29.98,SSE,160,0.0,0.0,33,0.00,,,0.00,meteohub,2013-04-11 14:17:00,
2013-04-11 07:22:00,52.0,21.6,29.98,SSE,157,0.0,0.0,30,0.00,,,0.00,meteohub,2013-04-11 14:22:00,
2013-04-11 07:27:00,52.5,23.5,29.97,SSE,165,1.0,3.0,32,0.00,,,0.00,meteohub,2013-04-11 14:27:00,
2013-04-11 07:37:00,53.6,25.9,29.97,SE,142,1.0,3.0,34,0.00,,,0.00,meteohub,2013-04-11 14:37:00,
2013-04-11 07:42:00,53.8,23.9,29.97,SSE,149,2.0,3.0,31,0.00,,,0.00,meteohub,2013-04-11 14:42:00,
2013-04-11 07:52:00,54.1,19.9,29.97,SSE,155,1.0,4.0,26,0.00,,,0.00,meteohub,2013-04-11 14:52:00,
2013-04-11 07:57:00,54.1,21.7,29.97,SE,142,2.0,5.0,28,0.00,,,0.00,meteohub,2013-04-11 14:57:00,
2013-04-11 08:02:00,54.1,19.9,29.97,SSW,211,1.0,5.0,26,0.00,,,0.00,meteohub,2013-04-11 15:02:00,
2013-04-11 08:12:00,54.0,21.6,29.97,East,93,2.0,6.0,28,0.00,,,0.00,meteohub,2013-04-11 15:12:00,
2013-04-11 08:17:00,53.8,21.4,29.97,SSE,167,5.0,6.0,28,0.00,,,0.00,meteohub,2013-04-11 15:17:00,
2013-04-11 08:27:00,54.7,22.3,29.97,SE,142,2.0,8.0,28,0.00,,,0.00,meteohub,2013-04-11 15:27:00,
2013-04-11 08:32:00,56.1,23.4,29.97,ESE,110,4.0,9.0,28,0.00,,,0.00,meteohub,2013-04-11 15:32:00,
2013-04-11 08:37:00,56.8,22.3,29.97,East,98,4.0,9.0,26,0.00,,,0.00,meteohub,2013-04-11 15:37:00,
2013-04-11 08:47:00,57.0,24.3,29.98,SE,138,4.0,9.0,28,0.00,,,0.00,meteohub,2013-04-11 15:47:00,
2013-04-11 08:57:00,57.6,24.6,29.97,East,94,5.0,9.0,28,0.00,,,0.00,meteohub,2013-04-11 15:57:00,
2013-04-11 09:07:00,57.7,23.9,29.98,WSW,255,2.0,8.0,27,0.00,,,0.00,meteohub,2013-04-11 16:07:00,
2013-04-11 09:17:00,58.5,27.1,29.97,ESE,111,3.0,8.0,30,0.00,,,0.00,meteohub,2013-04-11 16:17:00,
2013-04-11 09:22:00,58.8,26.6,29.97,SSE,155,1.0,8.0,29,0.00,,,0.00,meteohub,2013-04-11 16:22:00,
2013-04-11 09:27:00,60.1,24.1,29.97,NNW,333,2.0,8.0,25,0.00,,,0.00,meteohub,2013-04-11 16:27:00,
2013-04-11 09:32:00,59.9,21.9,29.96,East,96,0.0,8.0,23,0.00,,,0.00,meteohub,2013-04-11 16:32:00,
2013-04-11 09:37:00,60.6,25.5,29.96,WNW,289,1.0,3.0,26,0.00,,,0.00,meteohub,2013-04-11 16:37:00,
2013-04-11 09:42:00,62.2,27.0,29.97,West,276,0.0,3.0,26,0.00,,,0.00,meteohub,2013-04-11 16:42:00,
2013-04-11 09:52:00,61.5,28.9,29.96,ESE,103,4.0,6.0,29,0.00,,,0.00,meteohub,2013-04-11 16:52:00,
2013-04-11 09:57:00,61.2,28.6,29.96,ESE,117,1.0,7.0,29,0.00,,,0.00,meteohub,2013-04-11 16:57:00,
2013-04-11 10:07:00,61.2,29.5,29.96,ESE,120,5.0,8.0,30,0.00,,,0.00,meteohub,2013-04-11 17:07:00,
2013-04-11 10:12:00,60.3,28.8,29.96,WSW,256,2.0,11.0,30,0.00,,,0.00,meteohub,2013-04-11 17:12:00,
2013-04-11 10:17:00,59.7,28.2,29.96,ESE,105,2.0,11.0,30,0.00,,,0.00,meteohub,2013-04-11 17:17:00,
2013-04-11 10:22:00,59.7,27.3,29.96,South,177,4.0,11.0,29,0.00,,,0.00,meteohub,2013-04-11 17:22:00,
2013-04-11 10:27:00,59.4,27.9,29.96,ESE,105,7.0,9.0,30,0.00,,,0.00,meteohub,2013-04-11 17:27:00,
2013-04-11 10:37:00,58.5,27.9,29.96,ESE,113,6.0,12.0,31,0.00,,,0.00,meteohub,2013-04-11 17:37:00,
2013-04-11 10:42:00,58.8,27.5,29.95,East,85,5.0,12.0,30,0.00,,,0.00,meteohub,2013-04-11 17:42:00,
2013-04-11 10:47:00,58.3,27.0,29.95,ESE,113,2.0,13.0,30,0.00,,,0.00,meteohub,2013-04-11 17:47:00,
2013-04-11 10:52:00,59.0,27.7,29.95,SE,139,2.0,13.0,30,0.00,,,0.00,meteohub,2013-04-11 17:52:00,
2013-04-11 10:57:00,59.4,28.8,29.95,SW,217,3.0,13.0,31,0.00,,,0.00,meteohub,2013-04-11 17:57:00,
2013-04-11 11:02:00,58.8,29.8,29.94,SSW,210,1.0,11.0,33,0.00,,,0.00,meteohub,2013-04-11 18:02:00,
2013-04-11 11:12:00,59.0,28.4,29.94,ESE,121,5.0,15.0,31,0.00,,,0.00,meteohub,2013-04-11 18:12:00,
2013-04-11 11:22:00,59.7,28.2,29.93,SE,135,3.0,9.0,30,0.00,,,0.00,meteohub,2013-04-11 18:22:00,
2013-04-11 11:27:00,59.0,27.7,29.93,ESE,122,5.0,8.0,30,0.00,,,0.00,meteohub,2013-04-11 18:27:00,
2013-04-11 11:37:00,58.6,27.3,29.92,ESE,111,6.0,12.0,30,0.00,,,0.00,meteohub,2013-04-11 18:37:00,
2013-04-11 11:42:00,58.6,27.3,29.92,SSW,200,8.0,12.0,30,0.00,,,0.00,meteohub,2013-04-11 18:42:00,
2013-04-11 11:47:00,59.2,28.6,29.92,South,179,7.0,16.0,31,0.00,,,0.00,meteohub,2013-04-11 18:47:00,
2013-04-11 11:57:00,58.8,27.5,29.92,East,99,9.0,16.0,30,0.00,,,0.00,meteohub,2013-04-11 18:57:00,
2013-04-11 12:02:00,58.6,27.3,29.91,East,84,6.0,13.0,30,0.00,,,0.00,meteohub,2013-04-11 19:02:00,
2013-04-11 12:07:00,58.1,26.8,29.91,SSE,163,12.0,13.0,30,0.00,,,0.00,meteohub,2013-04-11 19:07:00,
2013-04-11 12:17:00,58.8,28.2,29.91,SW,232,4.0,13.0,31,0.00,,,0.00,meteohub,2013-04-11 19:17:00,
2013-04-11 12:27:00,60.1,28.6,29.90,SW,219,3.0,16.0,30,0.00,,,0.00,meteohub,2013-04-11 19:27:00,
2013-04-11 12:32:00,59.7,28.2,29.90,East,84,7.0,16.0,30,0.00,,,0.00,meteohub,2013-04-11 19:32:00,
2013-04-11 12:42:00,59.7,28.9,29.90,ESE,108,6.0,16.0,31,0.00,,,0.00,meteohub,2013-04-11 19:42:00,
2013-04-11 12:47:00,59.5,29.7,29.90,SSW,210,2.0,15.0,32,0.00,,,0.00,meteohub,2013-04-11 19:47:00,
2013-04-11 12:57:00,59.7,28.2,29.89,SSW,201,2.0,16.0,30,0.00,,,0.00,meteohub,2013-04-11 19:57:00,
2013-04-11 13:07:00,60.3,30.2,29.89,ESE,113,6.0,16.0,32,0.00,,,0.00,meteohub,2013-04-11 20:07:00,
2013-04-11 13:17:00,60.4,28.0,29.89,SE,131,2.0,13.0,29,0.00,,,0.00,meteohub,2013-04-11 20:17:00,
2013-04-11 13:27:00,61.0,30.9,29.89,SW,231,1.0,11.0,32,0.00,,,0.00,meteohub,2013-04-11 20:27:00,
2013-04-11 13:32:00,61.2,29.5,29.89,SW,226,6.0,11.0,30,0.00,,,0.00,meteohub,2013-04-11 20:32:00,
2013-04-11 13:37:00,61.2,30.2,29.89,South,181,3.0,12.0,31,0.00,,,0.00,meteohub,2013-04-11 20:37:00,
2013-04-11 13:47:00,60.4,29.7,29.89,SE,141,5.0,14.0,31,0.00,,,0.00,meteohub,2013-04-11 20:47:00,
2013-04-11 13:52:00,60.3,27.9,29.88,ENE,71,5.0,14.0,29,0.00,,,0.00,meteohub,2013-04-11 20:52:00,
2013-04-11 13:57:00,60.3,29.5,29.87,NNW,340,3.0,12.0,31,0.00,,,0.00,meteohub,2013-04-11 20:57:00,
2013-04-11 14:02:00,60.6,29.8,29.87,ESE,121,5.0,11.0,31,0.00,,,0.00,meteohub,2013-04-11 21:02:00,
2013-04-11 14:07:00,60.3,29.5,29.87,NE,39,8.0,11.0,31,0.00,,,0.00,meteohub,2013-04-11 21:07:00,
2013-04-11 14:12:00,61.0,31.6,29.87,East,96,2.0,11.0,33,0.00,,,0.00,meteohub,2013-04-11 21:12:00,
2013-04-11 14:22:00,60.8,30.0,29.87,SSE,160,6.0,11.0,31,0.00,,,0.00,meteohub,2013-04-11 21:22:00,
2013-04-11 14:27:00,60.6,29.8,29.86,SSE,157,6.0,11.0,31,0.00,,,0.00,meteohub,2013-04-11 21:27:00,
2013-04-11 14:32:00,60.4,29.7,29.86,South,186,3.0,16.0,31,0.00,,,0.00,meteohub,2013-04-11 21:32:00,
2013-04-11 14:37:00,60.6,28.9,29.86,East,96,8.0,16.0,30,0.00,,,0.00,meteohub,2013-04-11 21:37:00,
2013-04-11 14:42:00,60.4,28.9,29.86,East,91,4.0,16.0,30,0.00,,,0.00,meteohub,2013-04-11 21:42:00,
2013-04-11 14:47:00,60.3,29.5,29.85,SE,124,2.0,11.0,31,0.00,,,0.00,meteohub,2013-04-11 21:47:00,
2013-04-11 14:52:00,60.3,29.5,29.86,ENE,73,5.0,13.0,31,0.00,,,0.00,meteohub,2013-04-11 21:52:00,
2013-04-11 14:57:00,60.4,28.9,29.85,SSW,211,7.0,13.0,30,0.00,,,0.00,meteohub,2013-04-11 21:57:00,
2013-04-11 15:07:00,60.1,30.2,29.85,ESE,103,2.0,14.0,32,0.00,,,0.00,meteohub,2013-04-11 22:07:00,
2013-04-11 15:12:00,60.1,29.3,29.85,ESE,107,6.0,14.0,31,0.00,,,0.00,meteohub,2013-04-11 22:12:00,
2013-04-11 15:17:00,60.3,29.5,29.84,South,191,3.0,14.0,31,0.00,,,0.00,meteohub,2013-04-11 22:17:00,
2013-04-11 15:22:00,60.6,29.8,29.84,SW,232,3.0,11.0,31,0.00,,,0.00,meteohub,2013-04-11 22:22:00,
2013-04-11 15:32:00,59.7,28.9,29.83,ESE,117,7.0,12.0,31,0.00,,,0.00,meteohub,2013-04-11 22:32:00,
2013-04-11 15:37:00,59.7,28.9,29.83,ESE,105,5.0,12.0,31,0.00,,,0.00,meteohub,2013-04-11 22:37:00,
2013-04-11 15:42:00,59.4,28.8,29.83,SW,229,2.0,12.0,31,0.00,,,0.00,meteohub,2013-04-11 22:42:00,
2013-04-11 15:47:00,59.7,30.6,29.83,East,101,2.0,12.0,33,0.00,,,0.00,meteohub,2013-04-11 22:47:00,
2013-04-11 15:57:00,59.7,28.9,29.83,SSE,162,8.0,12.0,31,0.00,,,0.00,meteohub,2013-04-11 22:57:00,
2013-04-11 16:02:00,59.4,28.8,29.83,ESE,103,7.0,12.0,31,0.00,,,0.00,meteohub,2013-04-11 23:02:00,
2013-04-11 16:07:00,59.2,29.3,29.82,ESE,102,7.0,12.0,32,0.00,,,0.00,meteohub,2013-04-11 23:07:00,
2013-04-11 16:12:00,59.0,29.1,29.82,SE,130,1.0,12.0,32,0.00,,,0.00,meteohub,2013-04-11 23:12:00,
2013-04-11 16:17:00,59.0,28.4,29.82,South,177,3.0,10.0,31,0.00,,,0.00,meteohub,2013-04-11 23:17:00,
2013-04-11 16:27:00,58.8,28.9,29.82,SE,132,2.0,14.0,32,0.00,,,0.00,meteohub,2013-04-11 23:27:00,
2013-04-11 16:32:00,59.0,28.4,29.82,SE,131,4.0,13.0,31,0.00,,,0.00,meteohub,2013-04-11 23:32:00,
2013-04-11 16:37:00,58.8,28.9,29.82,ESE,109,3.0,11.0,32,0.00,,,0.00,meteohub,2013-04-11 23:37:00,
2013-04-11 16:42:00,58.5,29.5,29.81,SSE,153,1.0,11.0,33,0.00,,,0.00,meteohub,2013-04-11 23:42:00,
2013-04-11 16:47:00,58.5,28.8,29.81,ESE,104,4.0,11.0,32,0.00,,,0.00,meteohub,2013-04-11 23:47:00,
2013-04-11 16:57:00,57.9,28.2,29.81,SSE,156,3.0,12.0,32,0.00,,,0.00,meteohub,2013-04-11 23:57:00,
2013-04-11 17:02:00,57.9,28.9,29.81,SE,132,2.0,12.0,33,0.00,,,0.00,meteohub,2013-04-12 00:02:00,
2013-04-11 17:07:00,57.6,28.6,29.81,SW,226,1.0,12.0,33,0.00,,,0.00,meteohub,2013-04-12 00:07:00,
2013-04-11 17:12:00,57.6,27.9,29.81,SE,138,3.0,8.0,32,0.00,,,0.00,meteohub,2013-04-12 00:12:00,
2013-04-11 17:17:00,57.4,27.7,29.80,NE,34,3.0,13.0,32,0.00,,,0.00,meteohub,2013-04-12 00:17:00,
2013-04-11 17:22:00,57.0,28.9,29.80,SE,138,1.0,13.0,34,0.00,,,0.00,meteohub,2013-04-12 00:22:00,
2013-04-11 17:27:00,56.8,28.8,29.80,East,96,5.0,10.0,34,0.00,,,0.00,meteohub,2013-04-12 00:27:00,
2013-04-11 17:32:00,56.7,28.6,29.80,ESE,102,2.0,14.0,34,0.00,,,0.00,meteohub,2013-04-12 00:32:00,
2013-04-11 17:37:00,56.5,30.6,29.81,South,176,4.0,14.0,37,0.00,,,0.00,meteohub,2013-04-12 00:37:00,
2013-04-11 17:47:00,55.9,34.9,29.80,WSW,256,8.0,14.0,45,0.00,,,0.00,meteohub,2013-04-12 00:47:00,
2013-04-11 17:57:00,55.2,36.9,29.79,SSE,147,7.0,9.0,50,0.00,,,0.00,meteohub,2013-04-12 00:57:00,
2013-04-11 18:02:00,54.9,38.1,29.79,SSE,163,4.0,11.0,53,0.00,,,0.00,meteohub,2013-04-12 01:02:00,
2013-04-11 18:07:00,54.3,37.9,29.79,SE,124,3.0,12.0,54,0.00,,,0.00,meteohub,2013-04-12 01:07:00,
2013-04-11 18:17:00,53.6,39.2,29.79,WSW,238,3.0,10.0,58,0.00,,,0.00,meteohub,2013-04-12 01:17:00,
2013-04-11 18:22:00,53.2,39.7,29.79,SSW,196,7.0,10.0,60,0.00,,,0.00,meteohub,2013-04-12 01:22:00,
2013-04-11 18:27:00,53.1,39.9,29.79,ESE,104,1.0,10.0,61,0.00,,,0.00,meteohub,2013-04-12 01:27:00,
2013-04-11 18:32:00,52.7,40.1,29.79,East,89,5.0,12.0,62,0.00,,,0.00,meteohub,2013-04-12 01:32:00,
2013-04-11 18:37:00,52.3,40.1,29.79,East,86,4.0,12.0,63,0.00,,,0.00,meteohub,2013-04-12 01:37:00,
2013-04-11 18:47:00,52.0,40.6,29.78,East,79,3.0,11.0,65,0.00,,,0.00,meteohub,2013-04-12 01:47:00,
2013-04-11 18:52:00,51.6,40.6,29.78,SE,124,3.0,12.0,66,0.00,,,0.00,meteohub,2013-04-12 01:52:00,
2013-04-11 18:57:00,51.3,40.6,29.78,SE,138,2.0,12.0,67,0.00,,,0.00,meteohub,2013-04-12 01:57:00,
2013-04-11 19:02:00,51.1,40.8,29.78,SSE,160,5.0,12.0,68,0.00,,,0.00,meteohub,2013-04-12 02:02:00,
2013-04-11 19:12:00,50.4,41.0,29.78,East,98,3.0,12.0,70,0.00,,,0.00,meteohub,2013-04-12 02:12:00,
2013-04-11 19:17:00,50.2,40.8,29.78,SE,132,4.0,12.0,70,0.00,,,0.00,meteohub,2013-04-12 02:17:00,
2013-04-11 19:22:00,49.8,40.8,29.78,SE,146,3.0,12.0,71,0.00,,,0.00,meteohub,2013-04-12 02:22:00,
2013-04-11 19:32:00,49.5,40.8,29.78,SW,231,4.0,12.0,72,0.00,,,0.00,meteohub,2013-04-12 02:32:00,
2013-04-11 19:37:00,49.6,40.6,29.78,South,183,2.0,12.0,71,0.00,,,0.00,meteohub,2013-04-12 02:37:00,
2013-04-11 19:42:00,49.5,40.5,29.78,SSE,148,1.0,11.0,71,0.00,,,0.00,meteohub,2013-04-12 02:42:00,
2013-04-11 19:47:00,49.5,40.5,29.78,SE,127,4.0,11.0,71,0.00,,,0.00,meteohub,2013-04-12 02:47:00,
2013-04-11 19:52:00,49.6,40.3,29.78,SE,141,8.0,11.0,70,0.00,,,0.00,meteohub,2013-04-12 02:52:00,
2013-04-11 19:57:00,49.8,40.1,29.78,South,190,5.0,11.0,69,0.00,,,0.00,meteohub,2013-04-12 02:57:00,
2013-04-11 20:02:00,49.8,40.1,29.78,North,1,2.0,10.0,69,0.00,,,0.00,meteohub,2013-04-12 03:02:00,
2013-04-11 20:07:00,50.0,40.3,29.78,SE,132,3.0,10.0,69,0.00,,,0.00,meteohub,2013-04-12 03:07:00,
2013-04-11 20:12:00,49.8,40.1,29.78,ENE,71,2.0,10.0,69,0.00,,,0.00,meteohub,2013-04-12 03:12:00,
2013-04-11 20:22:00,49.8,40.5,29.79,SE,146,6.0,11.0,70,0.00,,,0.00,meteohub,2013-04-12 03:22:00,
2013-04-11 20:27:00,49.6,40.3,29.79,NW,323,2.0,10.0,70,0.00,,,0.00,meteohub,2013-04-12 03:27:00,
2013-04-11 20:32:00,49.5,40.5,29.79,SSW,207,2.0,10.0,71,0.00,,,0.00,meteohub,2013-04-12 03:32:00,
2013-04-11 20:37:00,49.3,40.3,29.79,SW,233,2.0,10.0,71,0.00,,,0.00,meteohub,2013-04-12 03:37:00,
2013-04-11 20:42:00,49.1,40.5,29.80,East,84,1.0,9.0,72,0.00,,,0.00,meteohub,2013-04-12 03:42:00,
2013-04-11 20:47:00,48.9,40.3,29.81,SE,129,1.0,9.0,72,0.00,,,0.00,meteohub,2013-04-12 03:47:00,
2013-04-11 20:52:00,48.7,40.1,29.81,WNW,287,1.0,9.0,72,0.00,,,0.00,meteohub,2013-04-12 03:52:00,
2013-04-11 20:57:00,48.7,40.1,29.81,SSE,158,1.0,9.0,72,0.00,,,0.00,meteohub,2013-04-12 03:57:00,
2013-04-11 21:02:00,48.6,39.9,29.81,SSE,161,1.0,9.0,72,0.00,,,0.00,meteohub,2013-04-12 04:02:00,
2013-04-11 21:07:00,48.6,39.9,29.81,SSW,205,0.0,4.0,72,0.00,,,0.00,meteohub,2013-04-12 04:07:00,
2013-04-11 21:12:00,48.4,40.1,29.81,SSW,205,0.0,4.0,73,0.00,,,0.00,meteohub,2013-04-12 04:12:00,
2013-04-11 21:17:00,48.0,40.1,29.82,SSW,205,0.0,4.0,74,0.00,,,0.00,meteohub,2013-04-12 04:17:00,
2013-04-11 21:22:00,47.7,39.7,29.82,SSW,205,0.0,1.0,74,0.00,,,0.00,meteohub,2013-04-12 04:22:00,
2013-04-11 21:27:00,47.5,39.2,29.82,SSW,205,0.0,0.0,73,0.00,,,0.00,meteohub,2013-04-12 04:27:00,
2013-04-11 21:32:00,47.5,39.2,29.82,SSW,205,0.0,0.0,73,0.00,,,0.00,meteohub,2013-04-12 04:32:00,
2013-04-11 21:37:00,47.3,39.0,29.82,SSW,205,0.0,0.0,73,0.00,,,0.00,meteohub,2013-04-12 04:37:00,
2013-04-11 21:42:00,47.3,38.3,29.82,SSW,205,0.0,0.0,71,0.00,,,0.00,meteohub,2013-04-12 04:42:00,
2013-04-11 21:47:00,47.5,37.8,29.82,SSW,205,0.0,0.0,69,0.00,,,0.00,meteohub,2013-04-12 04:47:00,
2013-04-11 21:52:00,47.8,37.4,29.83,SSW,205,0.0,0.0,67,0.00,,,0.00,meteohub,2013-04-12 04:52:00,
2013-04-11 21:57:00,48.0,36.0,29.83,SSW,205,0.0,0.0,63,0.00,,,0.00,meteohub,2013-04-12 04:57:00,
2013-04-11 22:02:00,48.2,35.4,29.83,SSW,205,0.0,0.0,61,0.00,,,0.00,meteohub,2013-04-12 05:02:00,
2013-04-11 22:12:00,48.7,35.1,29.83,SSW,201,0.0,0.0,59,0.00,,,0.00,meteohub,2013-04-12 05:12:00,
2013-04-11 22:22:00,48.9,34.9,29.83,SSW,200,0.0,0.0,58,0.00,,,0.00,meteohub,2013-04-12 05:22:00,
2013-04-11 22:27:00,48.9,34.3,29.83,SSW,200,0.0,0.0,57,0.00,,,0.00,meteohub,2013-04-12 05:27:00,
2013-04-11 22:32:00,49.1,34.9,29.83,SSW,200,0.0,0.0,58,0.00,,,0.00,meteohub,2013-04-12 05:32:00,
2013-04-11 22:42:00,49.3,34.2,29.83,SSW,200,0.0,0.0,56,0.00,,,0.00,meteohub,2013-04-12 05:42:00,
2013-04-11 22:47:00,49.5,34.3,29.82,SSW,195,0.0,0.0,56,0.00,,,0.00,meteohub,2013-04-12 05:47:00,
2013-04-11 22:52:00,49.6,34.2,29.82,SSW,196,0.0,0.0,55,0.00,,,0.00,meteohub,2013-04-12 05:52:00,
2013-04-11 22:57:00,49.5,34.0,29.82,SSW,195,0.0,0.0,55,0.00,,,0.00,meteohub,2013-04-12 05:57:00,
2013-04-11 23:02:00,49.3,33.8,29.83,SSW,195,0.0,0.0,55,0.00,,,0.00,meteohub,2013-04-12 06:02:00,
2013-04-11 23:07:00,49.3,33.8,29.82,SSW,196,0.0,0.0,55,0.00,,,0.00,meteohub,2013-04-12 06:07:00,
2013-04-11 23:12:00,48.9,33.4,29.82,SSW,196,0.0,0.0,55,0.00,,,0.00,meteohub,2013-04-12 06:12:00,
2013-04-11 23:22:00,48.7,33.8,29.82,SSW,197,0.0,0.0,56,0.00,,,0.00,meteohub,2013-04-12 06:22:00,
2013-04-11 23:27:00,48.7,33.8,29.82,SSW,197,0.0,0.0,56,0.00,,,0.00,meteohub,2013-04-12 06:27:00,
2013-04-11 23:32:00,48.7,33.3,29.82,SSW,196,0.0,0.0,55,0.00,,,0.00,meteohub,2013-04-12 06:32:00,
2013-04-11 23:42:00,49.1,33.3,29.83,SSW,195,0.0,0.0,54,0.00,,,0.00,meteohub,2013-04-12 06:42:00,
2013-04-11 23:47:00,48.9,33.1,29.83,SSW,196,0.0,0.0,54,0.00,,,0.00,meteohub,2013-04-12 06:47:00,
2013-04-11 23:52:00,48.7,32.9,29.83,SSW,196,0.0,0.0,54,0.00,,,0.00,meteohub,2013-04-12 06:52:00,
2013-04-11 23:57:00,48.6,33.1,29.83,SSW,196,0.0,0.0,55,0.00,,,0.00,meteohub,2013-04-12 06:57:00,